createdAt,value
2019-05-03T00:00:18.773Z,14.54
2019-05-03T00:02:52.231Z,14.51
2019-05-03T00:05:04.355Z,14.47
2019-05-03T00:07:08.323Z,14.46
2019-05-03T00:09:14.388Z,14.46
2019-05-03T00:11:22.090Z,14.44
2019-05-03T00:13:26.107Z,14.46
2019-05-03T00:15:48.938Z,14.46
2019-05-03T00:17:52.766Z,14.45
2019-05-03T00:19:56.587Z,14.45
2019-05-03T00:22:02.144Z,14.44
2019-05-03T00:24:06.990Z,14.42
2019-05-03T00:26:11.998Z,14.42
2019-05-03T00:28:15.895Z,14.41
2019-05-03T00:30:19.792Z,14.43
2019-05-03T00:32:25.695Z,14.43
2019-05-03T00:34:34.494Z,14.41
2019-05-03T00:36:52.487Z,14.42
2019-05-03T00:39:01.938Z,14.38
2019-05-03T00:41:05.908Z,14.36
2019-05-03T00:43:11.598Z,14.35
2019-05-03T00:45:16.617Z,14.33
2019-05-03T00:47:22.155Z,14.31
2019-05-03T00:49:27.021Z,14.29
2019-05-03T00:51:31.789Z,14.27
2019-05-03T00:53:35.560Z,14.26
2019-05-03T00:55:42.010Z,14.26
2019-05-03T00:57:45.782Z,14.25
2019-05-03T00:59:49.637Z,14.24
2019-05-03T01:01:53.425Z,14.23
2019-05-03T01:03:57.257Z,14.22
2019-05-03T01:06:02.322Z,14.23
2019-05-03T01:08:06.245Z,14.19
2019-05-03T01:10:11.839Z,14.10
2019-05-03T01:12:15.717Z,13.99
2019-05-03T01:14:19.592Z,13.91
2019-05-03T01:16:25.956Z,13.84
2019-05-03T01:18:29.793Z,13.76
2019-05-03T01:20:33.677Z,13.73
2019-05-03T01:22:37.504Z,13.71
2019-05-03T01:24:42.776Z,13.70
2019-05-03T01:26:47.642Z,13.71
2019-05-03T01:28:52.120Z,13.71
2019-05-03T01:30:56.257Z,13.69
2019-05-03T01:33:00.101Z,13.67
2019-05-03T01:35:05.634Z,13.68
2019-05-03T01:37:09.456Z,13.69
2019-05-03T01:39:13.240Z,13.68
2019-05-03T01:41:17.052Z,13.68
2019-05-03T01:43:22.212Z,13.67
2019-05-03T01:45:26.140Z,13.63
2019-05-03T01:47:37.685Z,13.63
2019-05-03T01:49:49.093Z,13.63
2019-05-03T01:52:12.813Z,13.59
2019-05-03T01:54:16.623Z,13.58
2019-05-03T01:56:22.260Z,13.58
2019-05-03T01:58:26.226Z,13.57
2019-05-03T02:00:31.883Z,13.57
2019-05-03T02:02:52.468Z,13.56
2019-05-03T02:05:15.449Z,13.55
2019-05-03T02:07:19.321Z,13.54
2019-05-03T02:09:23.102Z,13.51
2019-05-03T02:11:26.908Z,13.51
2019-05-03T02:13:32.129Z,13.51
2019-05-03T02:15:37.054Z,13.54
2019-05-03T02:17:42.649Z,13.53
2019-05-03T02:19:46.510Z,13.51
2019-05-03T02:21:52.215Z,13.51
2019-05-03T02:23:55.936Z,13.49
2019-05-03T02:25:59.831Z,13.49
2019-05-03T02:28:03.736Z,13.49
2019-05-03T02:30:08.044Z,13.48
2019-05-03T02:32:13.321Z,13.47
2019-05-03T02:34:17.227Z,13.45
2019-05-03T02:36:23.310Z,13.44
2019-05-03T02:38:27.707Z,13.42
2019-05-03T02:40:33.821Z,13.43
2019-05-03T02:42:37.158Z,13.42
2019-05-03T02:44:41.213Z,13.43
2019-05-03T02:46:56.876Z,13.43
2019-05-03T02:49:26.033Z,13.41
2019-05-03T02:51:29.850Z,13.41
2019-05-03T02:53:35.875Z,13.38
2019-05-03T02:55:41.235Z,13.36
2019-05-03T02:57:46.697Z,13.33
2019-05-03T02:59:50.659Z,13.29
2019-05-03T03:01:55.910Z,13.27
2019-05-03T03:03:59.896Z,13.25
2019-05-03T03:06:06.737Z,13.24
2019-05-03T03:08:11.399Z,13.25
2019-05-03T03:10:17.490Z,13.24
2019-05-03T03:12:25.795Z,13.23
2019-05-03T03:14:32.946Z,13.22
2019-05-03T03:16:37.457Z,13.19
2019-05-03T03:18:41.651Z,13.17
2019-05-03T03:20:49.479Z,13.16
2019-05-03T03:22:56.350Z,13.15
2019-05-03T03:25:01.620Z,13.15
2019-05-03T03:27:08.152Z,13.14
2019-05-03T03:29:16.028Z,13.11
2019-05-03T03:31:28.925Z,13.11
2019-05-03T03:33:32.639Z,13.10
2019-05-03T03:35:39.794Z,13.10
2019-05-03T03:37:46.163Z,13.07
2019-05-03T03:39:50.592Z,13.04
2019-05-03T03:41:56.059Z,13.04
2019-05-03T03:44:02.886Z,13.04
2019-05-03T03:46:10.276Z,13.02
2019-05-03T03:48:15.964Z,13.03
2019-05-03T03:50:19.718Z,13.03
2019-05-03T03:52:27.477Z,13.00
2019-05-03T03:54:35.490Z,12.98
2019-05-03T03:56:58.399Z,12.98
2019-05-03T03:58:48.377Z,12.98
2019-05-03T04:00:52.274Z,12.96
2019-05-03T04:02:56.194Z,12.97
2019-05-03T04:05:00.087Z,12.96
2019-05-03T04:07:06.247Z,12.94
2019-05-03T04:09:11.729Z,12.93
2019-05-03T04:11:15.804Z,12.92
2019-05-03T04:13:21.501Z,12.90
2019-05-03T04:15:56.628Z,12.86
2019-05-03T04:18:19.034Z,12.82
2019-05-03T04:20:25.711Z,12.79
2019-05-03T04:22:30.587Z,12.77
2019-05-03T04:24:35.348Z,12.76
2019-05-03T04:26:40.802Z,12.75
2019-05-03T04:28:45.370Z,12.71
2019-05-03T04:30:49.281Z,12.70
2019-05-03T04:32:56.191Z,12.68
2019-05-03T04:34:58.620Z,12.68
2019-05-03T04:37:05.188Z,12.69
2019-05-03T04:39:08.072Z,12.67
2019-05-03T04:41:11.958Z,12.64
2019-05-03T04:43:16.562Z,12.64
2019-05-03T04:45:20.415Z,12.64
2019-05-03T04:47:26.456Z,12.62
2019-05-03T04:49:31.501Z,12.60
2019-05-03T04:51:35.364Z,12.61
2019-05-03T04:53:41.796Z,12.59
2019-05-03T04:55:46.828Z,12.56
2019-05-03T04:57:50.779Z,12.56
2019-05-03T04:59:56.048Z,12.58
2019-05-03T05:01:59.941Z,12.58
2019-05-03T05:04:05.319Z,12.58
2019-05-03T05:06:09.388Z,12.59
2019-05-03T05:08:13.200Z,12.58
2019-05-03T05:10:17.084Z,12.56
2019-05-03T05:12:20.918Z,12.57
2019-05-03T05:14:25.830Z,12.56
2019-05-03T05:16:29.840Z,12.57
2019-05-03T05:18:41.555Z,12.56
2019-05-03T05:20:52.994Z,12.54
2019-05-03T05:22:56.901Z,12.53
2019-05-03T05:25:04.366Z,12.54
2019-05-03T05:27:19.752Z,12.53
2019-05-03T05:29:25.629Z,12.50
2019-05-03T05:31:30.461Z,12.48
2019-05-03T05:33:35.352Z,12.50
2019-05-03T05:35:39.204Z,12.52
2019-05-03T05:37:44.419Z,12.55
2019-05-03T05:39:48.239Z,12.57
2019-05-03T05:41:52.050Z,12.58
2019-05-03T05:43:55.833Z,12.58
2019-05-03T05:45:59.658Z,12.59
2019-05-03T05:48:07.898Z,12.57
2019-05-03T05:50:27.871Z,12.58
2019-05-03T05:52:31.628Z,12.58
2019-05-03T05:54:37.365Z,12.60
2019-05-03T05:56:58.156Z,12.62
2019-05-03T05:59:05.944Z,12.62
2019-05-03T06:01:20.155Z,12.61
2019-05-03T06:03:25.237Z,12.60
2019-05-03T06:05:29.087Z,12.47
2019-05-03T06:07:44.338Z,12.34
2019-05-03T06:09:58.687Z,12.28
2019-05-03T06:12:09.623Z,12.21
2019-05-03T06:14:20.090Z,12.15
2019-05-03T06:16:41.499Z,12.07
2019-05-03T06:19:07.494Z,11.99
2019-05-03T06:21:19.066Z,11.94
2019-05-03T06:23:34.756Z,11.92
2019-05-03T06:25:40.880Z,11.89
2019-05-03T06:27:44.954Z,11.85
2019-05-03T06:29:49.768Z,11.80
2019-05-03T06:32:05.386Z,11.82
2019-05-03T06:34:09.294Z,11.81
2019-05-03T06:36:15.118Z,11.79
2019-05-03T06:38:18.730Z,11.81
2019-05-03T06:40:22.618Z,11.82
2019-05-03T06:42:26.478Z,11.81
2019-05-03T06:44:30.358Z,11.83
2019-05-03T06:46:45.631Z,11.86
2019-05-03T06:48:50.694Z,11.91
2019-05-03T06:50:55.786Z,11.94
2019-05-03T06:53:04.339Z,11.95
2019-05-03T06:55:10.505Z,11.95
2019-05-03T06:57:14.803Z,12.01
2019-05-03T06:59:26.939Z,12.02
2019-05-03T07:01:37.847Z,12.04
2019-05-03T07:04:05.090Z,12.06
2019-05-03T07:06:34.481Z,12.06
2019-05-03T07:08:49.651Z,12.04
2019-05-03T07:10:57.148Z,12.04
2019-05-03T07:13:02.262Z,12.05
2019-05-03T07:15:06.080Z,12.07
2019-05-03T07:17:09.965Z,12.11
2019-05-03T07:19:14.725Z,12.13
2019-05-03T07:21:18.518Z,12.15
2019-05-03T07:23:24.351Z,12.19
2019-05-03T07:25:27.862Z,12.24
2019-05-03T07:27:31.731Z,12.27
2019-05-03T07:29:36.607Z,12.27
2019-05-03T07:31:40.413Z,12.28
2019-05-03T07:33:44.676Z,12.29
2019-05-03T07:35:48.410Z,12.32
2019-05-03T07:37:52.235Z,12.37
2019-05-03T07:39:56.252Z,12.39
2019-05-03T07:42:00.029Z,12.42
2019-05-03T07:44:05.375Z,12.46
2019-05-03T07:46:09.169Z,12.50
2019-05-03T07:48:14.917Z,12.53
2019-05-03T07:50:18.691Z,12.58
2019-05-03T07:52:22.433Z,12.59
2019-05-03T07:54:26.156Z,12.65
2019-05-03T07:56:35.578Z,12.74
2019-05-03T07:58:40.621Z,12.84
2019-05-03T08:00:44.747Z,12.93
2019-05-03T08:02:48.505Z,13.02
2019-05-03T08:04:52.330Z,13.11
2019-05-03T08:06:56.168Z,13.16
2019-05-03T08:09:00.218Z,13.22
2019-05-03T08:11:05.324Z,13.35
2019-05-03T08:13:09.176Z,13.44
2019-05-03T08:15:15.592Z,13.49
2019-05-03T08:17:18.860Z,13.53
2019-05-03T08:19:24.476Z,13.59
2019-05-03T08:21:28.167Z,13.67
2019-05-03T08:23:31.963Z,13.74
2019-05-03T08:25:36.860Z,13.82
2019-05-03T08:27:40.588Z,13.96
2019-05-03T08:29:45.403Z,14.12
2019-05-03T08:31:59.825Z,14.22
2019-05-03T08:34:35.053Z,14.30
2019-05-03T08:36:59.182Z,14.36
2019-05-03T08:39:05.360Z,14.41
2019-05-03T08:41:10.394Z,14.55
2019-05-03T08:43:15.547Z,14.73
2019-05-03T08:45:19.420Z,14.91
2019-05-03T08:47:24.746Z,15.03
2019-05-03T08:49:28.745Z,15.09
2019-05-03T08:51:32.462Z,15.19
2019-05-03T08:53:36.333Z,15.28
2019-05-03T08:55:40.112Z,15.28
2019-05-03T08:57:44.791Z,15.27
2019-05-03T08:59:48.585Z,15.21
2019-05-03T09:01:52.402Z,15.15
2019-05-03T09:03:56.261Z,15.10
2019-05-03T09:06:00.032Z,15.20
2019-05-03T09:08:05.679Z,15.27
2019-05-03T09:10:18.699Z,15.29
2019-05-03T09:12:22.408Z,15.26
2019-05-03T09:14:38.750Z,15.26
2019-05-03T09:16:31.739Z,15.26
2019-05-03T09:18:35.460Z,15.22
2019-05-03T09:20:39.256Z,15.13
2019-05-03T09:22:45.210Z,15.09
2019-05-03T09:24:48.572Z,15.08
2019-05-03T09:26:52.498Z,15.03
2019-05-03T09:28:56.299Z,14.98
2019-05-03T09:31:00.027Z,14.88
2019-05-03T09:33:06.000Z,14.78
2019-05-03T09:35:28.987Z,14.74
2019-05-03T09:37:19.400Z,14.70
2019-05-03T09:39:24.524Z,14.63
2019-05-03T09:41:28.470Z,14.60
2019-05-03T09:43:32.252Z,14.60
2019-05-03T09:45:37.073Z,14.62
2019-05-03T09:47:41.013Z,14.66
2019-05-03T09:49:45.363Z,14.72
2019-05-03T09:51:49.263Z,14.75
2019-05-03T09:53:57.694Z,14.80
2019-05-03T09:56:01.518Z,14.84
2019-05-03T09:58:05.687Z,14.92
2019-05-03T10:00:11.387Z,15.02
2019-05-03T10:02:15.266Z,15.12
2019-05-03T10:04:19.108Z,15.22
2019-05-03T10:06:25.033Z,15.32
2019-05-03T10:08:28.310Z,15.39
2019-05-03T10:10:51.155Z,15.46
2019-05-03T10:12:55.146Z,15.50
2019-05-03T10:14:58.867Z,15.48
2019-05-03T10:17:27.798Z,15.47
2019-05-03T10:19:37.698Z,15.43
2019-05-03T10:21:39.286Z,15.41
2019-05-03T10:23:44.922Z,15.38
2019-05-03T10:25:48.574Z,15.37
2019-05-03T10:27:52.481Z,15.40
2019-05-03T10:30:09.660Z,15.43
2019-05-03T10:32:15.147Z,15.45
2019-05-03T10:34:19.020Z,15.49
2019-05-03T10:36:24.762Z,15.58
2019-05-03T10:38:28.316Z,15.64
2019-05-03T10:40:33.035Z,15.68
2019-05-03T10:42:36.926Z,15.69
2019-05-03T10:44:40.739Z,15.71
2019-05-03T10:46:45.268Z,15.75
2019-05-03T10:48:49.085Z,15.75
2019-05-03T10:50:52.870Z,15.75
2019-05-03T10:53:24.562Z,15.69
2019-05-03T10:55:30.292Z,15.66
2019-05-03T10:57:36.427Z,15.61
2019-05-03T10:59:40.319Z,15.56
2019-05-03T11:02:06.296Z,15.52
2019-05-03T11:04:11.109Z,15.53
2019-05-03T11:06:14.924Z,15.53
2019-05-03T11:08:18.720Z,15.56
2019-05-03T11:10:25.169Z,15.57
2019-05-03T11:12:29.199Z,15.58
2019-05-03T11:14:35.000Z,15.54
2019-05-03T11:16:38.875Z,15.52
2019-05-03T11:18:42.612Z,15.46
2019-05-03T11:20:46.441Z,15.43
2019-05-03T11:22:50.246Z,15.42
2019-05-03T11:24:54.685Z,15.42
2019-05-03T11:27:00.453Z,15.42
2019-05-03T11:29:05.185Z,15.47
2019-05-03T11:31:26.511Z,15.52
2019-05-03T11:33:35.495Z,15.57
2019-05-03T11:35:46.321Z,15.59
2019-05-03T11:37:53.991Z,15.61
2019-05-03T11:39:57.843Z,15.60
2019-05-03T11:42:01.686Z,15.61
2019-05-03T11:44:24.585Z,15.66
2019-05-03T11:46:28.391Z,15.70
2019-05-03T11:48:32.209Z,15.71
2019-05-03T11:50:35.931Z,15.72
2019-05-03T11:52:39.722Z,15.68
2019-05-03T11:54:45.256Z,15.65
2019-05-03T11:56:49.238Z,15.64
2019-05-03T11:58:54.859Z,15.65
2019-05-03T12:01:14.905Z,15.67
2019-05-03T12:03:35.379Z,15.70
2019-05-03T12:05:38.887Z,15.72
2019-05-03T12:07:45.544Z,15.74
2019-05-03T12:09:49.362Z,15.76
2019-05-03T12:11:55.345Z,15.80
2019-05-03T12:14:11.626Z,15.81
2019-05-03T12:16:21.785Z,15.80
2019-05-03T12:18:21.475Z,15.73
2019-05-03T12:20:28.505Z,15.68
2019-05-03T12:22:31.504Z,15.65
2019-05-03T12:24:37.046Z,15.61
2019-05-03T12:26:44.653Z,15.57
2019-05-03T12:28:46.725Z,15.52
2019-05-03T12:30:51.548Z,15.44
2019-05-03T12:32:55.342Z,15.38
2019-05-03T12:34:59.214Z,15.33
2019-05-03T12:37:05.169Z,15.28
2019-05-03T12:39:23.226Z,15.26
2019-05-03T12:41:15.686Z,15.24
2019-05-03T12:43:19.483Z,15.20
2019-05-03T12:45:24.781Z,15.14
2019-05-03T12:47:28.702Z,15.13
2019-05-03T12:49:32.498Z,15.12
2019-05-03T12:51:36.239Z,15.09
2019-05-03T12:53:39.980Z,15.05
2019-05-03T12:55:43.775Z,15.04
2019-05-03T12:57:47.500Z,15.03
2019-05-03T12:59:57.717Z,15.02
2019-05-03T13:02:24.755Z,14.99
2019-05-03T13:04:31.274Z,14.96
2019-05-03T13:06:37.855Z,14.94
2019-05-03T13:08:45.394Z,14.93
2019-05-03T13:10:49.898Z,14.94
2019-05-03T13:12:55.861Z,14.96
2019-05-03T13:14:59.306Z,14.95
2019-05-03T13:17:04.743Z,14.95
2019-05-03T13:19:08.581Z,14.96
2019-05-03T13:21:12.434Z,14.97
2019-05-03T13:23:16.187Z,14.99
2019-05-03T13:25:20.157Z,15.00
2019-05-03T13:27:25.300Z,15.03
2019-05-03T13:29:29.155Z,15.08
2019-05-03T13:31:34.703Z,15.13
2019-05-03T13:33:38.492Z,15.19
2019-05-03T13:35:44.451Z,15.22
2019-05-03T13:37:47.963Z,15.24
2019-05-03T13:39:51.742Z,15.23
2019-05-03T13:41:55.614Z,15.19
2019-05-03T13:43:59.436Z,15.17
2019-05-03T13:46:05.112Z,15.15
2019-05-03T13:48:08.710Z,15.17
2019-05-03T13:50:15.128Z,15.18
2019-05-03T13:52:19.963Z,15.14
2019-05-03T13:54:25.517Z,15.10
2019-05-03T13:56:29.458Z,15.08
2019-05-03T13:58:35.576Z,15.13
2019-05-03T14:00:38.768Z,15.07
2019-05-03T14:02:44.780Z,15.00
2019-05-03T14:04:52.526Z,15.07
2019-05-03T14:06:55.281Z,15.00
2019-05-03T14:08:59.014Z,14.90
2019-05-03T14:11:04.835Z,14.84
2019-05-03T14:13:08.337Z,14.76
2019-05-03T14:15:12.326Z,14.71
2019-05-03T14:17:16.091Z,14.55
2019-05-03T14:19:27.009Z,14.41
2019-05-03T14:21:39.434Z,14.32
2019-05-03T14:24:00.682Z,14.22
2019-05-03T14:26:04.622Z,14.16
2019-05-03T14:28:08.502Z,14.16
2019-05-03T14:30:14.601Z,14.16
2019-05-03T14:32:25.771Z,14.14
2019-05-03T14:34:25.747Z,14.14
2019-05-03T14:36:29.571Z,14.15
2019-05-03T14:38:33.294Z,14.12
2019-05-03T14:40:37.019Z,14.09
2019-05-03T14:42:40.806Z,14.12
2019-05-03T14:44:45.530Z,14.17
2019-05-03T14:46:49.398Z,14.20
2019-05-03T14:48:54.950Z,14.25
2019-05-03T14:50:59.746Z,14.30
2019-05-03T14:53:05.468Z,14.29
2019-05-03T14:55:15.478Z,14.30
2019-05-03T14:57:31.953Z,14.29
2019-05-03T15:00:16.985Z,14.29
2019-05-03T15:02:40.228Z,14.32
2019-05-03T15:04:34.918Z,14.37
2019-05-03T15:06:38.205Z,14.40
2019-05-03T15:08:42.012Z,14.43
2019-05-03T15:10:45.851Z,14.46
2019-05-03T15:12:49.605Z,14.46
2019-05-03T15:14:54.589Z,14.47
2019-05-03T15:17:00.399Z,14.47
2019-05-03T15:19:05.429Z,14.53
2019-05-03T15:21:09.343Z,14.54
2019-05-03T15:23:14.691Z,14.58
2019-05-03T15:25:18.655Z,14.63
2019-05-03T15:27:24.622Z,14.61
2019-05-03T15:29:27.888Z,14.60
2019-05-03T15:31:31.641Z,14.53
2019-05-03T15:33:35.546Z,14.44
2019-05-03T15:35:39.351Z,14.40
2019-05-03T15:37:45.100Z,14.40
2019-05-03T15:39:48.583Z,14.38
2019-05-03T15:41:54.332Z,14.37
2019-05-03T15:44:19.761Z,14.35
2019-05-03T15:46:45.506Z,14.34
2019-05-03T15:48:52.168Z,14.36
2019-05-03T15:50:57.984Z,14.37
2019-05-03T15:53:01.727Z,14.39
2019-05-03T15:55:06.124Z,14.40
2019-05-03T15:57:09.921Z,14.40
2019-05-03T15:59:15.008Z,14.44
2019-05-03T16:01:18.845Z,14.49
2019-05-03T16:03:22.632Z,14.53
2019-05-03T16:05:26.349Z,14.58
2019-05-03T16:07:30.154Z,14.60
2019-05-03T16:09:35.239Z,14.62
2019-05-03T16:11:38.918Z,14.60
2019-05-03T16:13:44.675Z,14.55
2019-05-03T16:15:48.335Z,14.51
2019-05-03T16:17:52.137Z,14.47
2019-05-03T16:19:55.939Z,14.47
2019-05-03T16:21:59.758Z,14.45
2019-05-03T16:24:05.000Z,14.45
2019-05-03T16:26:08.701Z,14.46
2019-05-03T16:28:17.487Z,14.49
2019-05-03T16:30:29.038Z,14.50
2019-05-03T16:32:34.689Z,14.42
2019-05-03T16:34:38.317Z,14.34
2019-05-03T16:36:42.157Z,14.33
2019-05-03T16:38:45.950Z,14.35
2019-05-03T16:40:49.802Z,14.35
2019-05-03T16:42:53.528Z,14.33
2019-05-03T16:44:57.818Z,14.34
2019-05-03T16:47:01.558Z,14.36
2019-05-03T16:49:06.542Z,14.36
2019-05-03T16:51:11.458Z,14.34
2019-05-03T16:53:15.193Z,14.32
2019-05-03T16:55:19.001Z,14.25
2019-05-03T16:57:24.629Z,14.24
2019-05-03T16:59:28.274Z,14.26
2019-05-03T17:01:31.994Z,14.24
2019-05-03T17:03:45.435Z,14.23
2019-05-03T17:06:16.392Z,14.23
2019-05-03T17:08:48.101Z,14.22
2019-05-03T17:10:54.479Z,14.17
2019-05-03T17:12:57.971Z,14.12
2019-05-03T17:15:01.958Z,14.10
2019-05-03T17:17:07.281Z,14.07
2019-05-03T17:19:11.174Z,14.01
2019-05-03T17:21:16.333Z,14.01
2019-05-03T17:23:20.153Z,14.00
2019-05-03T17:25:24.505Z,13.99
2019-05-03T17:27:28.283Z,13.99
2019-05-03T17:29:32.136Z,13.98
2019-05-03T17:31:35.852Z,14.00
2019-05-03T17:33:50.628Z,14.04
2019-05-03T17:35:45.100Z,14.07
2019-05-03T17:37:48.908Z,14.06
2019-05-03T17:40:14.823Z,14.07
2019-05-03T17:42:25.463Z,14.04
2019-05-03T17:44:34.811Z,13.96
2019-05-03T17:46:38.534Z,13.92
2019-05-03T17:48:42.323Z,13.92
2019-05-03T17:50:46.209Z,13.90
2019-05-03T17:52:56.783Z,13.84
2019-05-03T17:55:16.100Z,13.76
2019-05-03T17:57:24.356Z,13.71
2019-05-03T17:59:34.947Z,13.68
2019-05-03T18:02:15.728Z,13.65
2019-05-03T18:04:44.157Z,13.61
2019-05-03T18:06:58.512Z,13.57
2019-05-03T18:09:21.270Z,13.54
2019-05-03T18:11:28.894Z,13.54
2019-05-03T18:13:32.801Z,13.49
2019-05-03T18:15:36.576Z,13.42
2019-05-03T18:17:40.390Z,13.35
2019-05-03T18:19:44.802Z,13.30
2019-05-03T18:21:48.819Z,13.24
2019-05-03T18:23:54.341Z,13.19
2019-05-03T18:25:58.209Z,13.13
2019-05-03T18:28:01.982Z,13.07
2019-05-03T18:30:07.118Z,13.03
2019-05-03T18:32:10.829Z,12.97
2019-05-03T18:34:19.923Z,12.94
2019-05-03T18:36:20.149Z,12.88
2019-05-03T18:38:25.222Z,12.83
2019-05-03T18:40:30.235Z,12.77
2019-05-03T18:42:39.986Z,12.72
2019-05-03T18:44:47.625Z,12.68
2019-05-03T18:46:55.083Z,12.61
2019-05-03T18:48:58.903Z,12.61
2019-05-03T18:51:02.638Z,12.56
2019-05-03T18:53:06.506Z,12.51
2019-05-03T18:55:10.650Z,12.44
2019-05-03T18:57:15.669Z,12.40
2019-05-03T18:59:22.528Z,12.38
2019-05-03T19:01:26.267Z,12.36
2019-05-03T19:03:30.132Z,12.32
2019-05-03T19:05:35.754Z,12.31
2019-05-03T19:07:54.609Z,12.28
2019-05-03T19:10:11.392Z,12.25
2019-05-03T19:12:32.428Z,12.15
2019-05-03T19:14:36.307Z,12.06
2019-05-03T19:16:57.755Z,11.91
2019-05-03T19:19:01.677Z,11.80
2019-05-03T19:21:05.487Z,11.68
2019-05-03T19:23:09.400Z,11.53
2019-05-03T19:25:14.876Z,11.45
2019-05-03T19:27:18.680Z,11.43
2019-05-03T19:29:22.417Z,11.40
2019-05-03T19:31:26.557Z,11.38
2019-05-03T19:33:30.368Z,11.35
2019-05-03T19:35:36.341Z,11.30
2019-05-03T19:37:39.701Z,11.20
2019-05-03T19:39:43.450Z,11.13
2019-05-03T19:41:47.246Z,11.06
2019-05-03T19:43:51.161Z,11.00
2019-05-03T19:45:54.964Z,10.99
2019-05-03T19:47:59.772Z,10.98
2019-05-03T19:50:05.056Z,10.97
2019-05-03T19:52:10.171Z,10.96
2019-05-03T19:54:14.693Z,10.93
2019-05-03T19:56:19.613Z,10.85
2019-05-03T19:58:24.884Z,10.84
2019-05-03T20:00:37.027Z,10.88
2019-05-03T20:03:05.231Z,10.87
2019-05-03T20:05:22.002Z,10.85
2019-05-03T20:07:50.635Z,10.77
2019-05-03T20:09:54.498Z,10.71
2019-05-03T20:11:58.591Z,10.70
2019-05-03T20:14:04.724Z,10.67
2019-05-03T20:16:08.693Z,10.67
2019-05-03T20:18:14.918Z,10.67
2019-05-03T20:20:20.422Z,10.68
2019-05-03T20:22:24.881Z,10.68
2019-05-03T20:24:30.852Z,10.69
2019-05-03T20:26:34.908Z,10.72
2019-05-03T20:28:38.807Z,10.73
2019-05-03T20:30:45.200Z,10.73
2019-05-03T20:32:49.321Z,10.74
2019-05-03T20:34:55.006Z,10.73
2019-05-03T20:36:58.595Z,10.71
2019-05-03T20:39:05.445Z,10.59
2019-05-03T20:41:09.258Z,10.50
2019-05-03T20:43:41.021Z,10.42
2019-05-03T20:45:54.693Z,10.38
2019-05-03T20:47:59.755Z,10.38
2019-05-03T20:50:17.162Z,10.39
2019-05-03T20:52:20.897Z,10.35
2019-05-03T20:54:24.619Z,10.25
2019-05-03T20:56:28.431Z,10.18
2019-05-03T20:58:32.249Z,10.08
2019-05-03T21:00:36.097Z,10.03
2019-05-03T21:02:50.679Z,10.04
2019-05-03T21:04:45.415Z,10.06
2019-05-03T21:06:49.195Z,10.04
2019-05-03T21:08:54.208Z,10.00
2019-05-03T21:10:58.505Z,9.92
2019-05-03T21:13:02.236Z,9.84
2019-05-03T21:15:09.399Z,9.81
2019-05-03T21:17:32.236Z,9.73
2019-05-03T21:19:47.804Z,9.68
2019-05-03T21:22:19.458Z,9.58
2019-05-03T21:24:29.238Z,9.47
2019-05-03T21:26:34.583Z,9.43
2019-05-03T21:28:38.657Z,9.37
2019-05-03T21:30:42.480Z,9.37
2019-05-03T21:32:46.289Z,9.36
2019-05-03T21:34:51.174Z,9.35
2019-05-03T21:36:54.878Z,9.30
2019-05-03T21:38:58.610Z,9.26
2019-05-03T21:41:02.340Z,9.20
2019-05-03T21:43:06.127Z,9.19
2019-05-03T21:45:11.187Z,9.22
2019-05-03T21:47:45.941Z,9.29
2019-05-03T21:49:49.802Z,9.32
2019-05-03T21:51:53.736Z,9.39
2019-05-03T21:53:57.494Z,9.45
2019-05-03T21:56:01.308Z,9.46
2019-05-03T21:58:05.153Z,9.47
2019-05-03T22:00:09.529Z,9.47
2019-05-03T22:02:15.285Z,9.47
2019-05-03T22:04:18.768Z,9.43
2019-05-03T22:06:24.514Z,9.40
2019-05-03T22:08:28.003Z,9.41
2019-05-03T22:10:31.804Z,9.39
2019-05-03T22:12:35.518Z,9.40
2019-05-03T22:14:45.463Z,9.42
2019-05-03T22:17:06.825Z,9.43
2019-05-03T22:19:10.577Z,9.43
2019-05-03T22:21:36.699Z,9.45
2019-05-03T22:23:49.986Z,9.46
2019-05-03T22:25:54.323Z,9.45
2019-05-03T22:27:59.177Z,9.44
2019-05-03T22:30:03.031Z,9.45
2019-05-03T22:32:07.864Z,9.45
2019-05-03T22:34:12.608Z,9.46
2019-05-03T22:36:16.445Z,9.45
2019-05-03T22:38:20.240Z,9.46
2019-05-03T22:40:25.115Z,9.48
2019-05-03T22:42:28.974Z,9.49
2019-05-03T22:44:32.747Z,9.48
2019-05-03T22:46:36.720Z,9.49
2019-05-03T22:48:40.471Z,9.47
2019-05-03T22:50:44.902Z,9.49
2019-05-03T22:52:48.685Z,9.51
2019-05-03T22:54:52.495Z,9.53
2019-05-03T22:56:56.440Z,9.53
2019-05-03T22:59:00.193Z,9.53
2019-05-03T23:01:04.158Z,9.52
2019-05-03T23:03:07.924Z,9.52
2019-05-03T23:05:12.999Z,9.50
2019-05-03T23:07:16.750Z,9.48
2019-05-03T23:09:20.640Z,9.48
2019-05-03T23:11:24.610Z,9.51
2019-05-03T23:13:28.463Z,9.50
2019-05-03T23:15:32.258Z,9.47
2019-05-03T23:17:36.078Z,9.46
2019-05-03T23:19:42.248Z,9.46
2019-05-03T23:22:05.214Z,9.47
2019-05-03T23:24:09.006Z,9.47
2019-05-03T23:26:14.734Z,9.46
2019-05-03T23:28:20.303Z,9.45
2019-05-03T23:30:24.793Z,9.44
2019-05-03T23:32:28.711Z,9.43
2019-05-03T23:34:32.513Z,9.46
2019-05-03T23:36:37.319Z,9.47
2019-05-03T23:38:45.039Z,9.43
2019-05-03T23:40:48.609Z,9.40
2019-05-03T23:42:54.210Z,9.32
2019-05-03T23:44:57.956Z,9.29
2019-05-03T23:47:20.790Z,9.29
2019-05-03T23:49:25.089Z,9.25
2019-05-03T23:51:46.553Z,9.20
2019-05-03T23:53:50.344Z,9.15
2019-05-03T23:55:59.401Z,9.12
2019-05-03T23:58:04.823Z,9.11
